Time;durP1;ratioP1;P1;durP2;ratioP2;P2;SDS_P1;SDS_P2;PMS_P1;PMS_P2;Temp;Humidity;BMP_temperature;BMP_pressure;BME280_temperature;BME280_humidity;BME280_pressure;Samples;Min_cycle;Max_cycle;Signal;HPM_P1;HPM_P2
2023/08/01 00:01:42;;;;;;;9.13;2.00;;;;;;;-142.75;100.00;74858.09;5068185;28;20042;-63
2023/08/01 00:04:07;;;;;;;7.38;2.03;;;;;;;-142.75;100.00;74858.09;5070191;28;20040;-63
2023/08/01 00:06:33;;;;;;;12.70;2.30;;;;;;;-142.75;100.00;74852.19;5076027;28;20030;-63
2023/08/01 00:08:58;;;;;;;10.38;2.20;;;;;;;-142.75;100.00;74877.75;5088409;28;20062;-63
2023/08/01 00:11:23;;;;;;;9.30;2.53;;;;;;;-142.75;100.00;74862.03;5087995;28;20484;-62
2023/08/01 00:13:49;;;;;;;8.90;2.20;;;;;;;-142.75;100.00;74860.06;5088318;28;20032;-63
2023/08/01 00:16:14;;;;;;;9.65;1.67;;;;;;;-142.75;100.00;74860.06;5075445;28;20053;-63
2023/08/01 00:18:39;;;;;;;4.93;2.00;;;;;;;-142.75;100.00;74871.84;5068181;28;20111;-63
2023/08/01 00:21:08;;;;;;;10.63;2.30;;;;;;;-142.75;100.00;74895.47;5072057;28;20024;-63
2023/08/01 00:23:34;;;;;;;7.30;2.45;;;;;;;-142.75;100.00;74875.78;5069001;28;20025;-63
2023/08/01 00:25:59;;;;;;;7.18;2.00;;;;;;;-142.75;100.00;74879.72;5068484;28;20115;-63
2023/08/01 00:28:26;;;;;;;6.82;2.30;;;;;;;-142.75;100.00;74867.91;5068990;28;20488;-63
2023/08/01 00:31:09;;;;;;;8.88;2.53;;;;;;;-142.75;100.00;74850.22;5070934;28;20032;-63
2023/08/01 00:33:35;;;;;;;8.20;2.00;;;;;;;-142.75;100.00;74848.25;5073578;28;20027;-63
2023/08/01 00:36:01;;;;;;;7.38;2.15;;;;;;;-142.75;100.00;74844.31;5070563;28;20028;-63
2023/08/01 00:38:27;;;;;;;4.43;2.08;;;;;;;-142.75;100.00;74860.06;5068105;28;20032;-64
2023/08/01 00:40:52;;;;;;;7.75;2.10;;;;;;;-142.75;100.00;74846.28;5069353;28;20506;-63
2023/08/01 00:43:17;;;;;;;7.95;2.22;;;;;;;-142.75;100.00;74858.09;5067888;28;20127;-63
2023/08/01 00:45:44;;;;;;;5.13;1.98;;;;;;;-142.75;100.00;74850.22;5068148;28;20032;-63
2023/08/01 00:48:10;;;;;;;6.13;2.25;;;;;;;-142.75;100.00;74850.22;5067914;28;20036;-63
2023/08/01 00:50:35;;;;;;;10.18;2.40;;;;;;;-142.75;100.00;74858.09;5067964;28;20024;-63
2023/08/01 00:53:01;;;;;;;6.90;2.20;;;;;;;-142.75;100.00;74891.53;5067563;28;20369;-63
2023/08/01 00:55:29;;;;;;;8.20;2.55;;;;;;;-142.75;100.00;74864.00;5067797;28;20037;-63
2023/08/01 00:57:54;;;;;;;9.73;2.88;;;;;;;-142.75;100.00;74873.81;5067648;28;20031;-63
2023/08/01 01:00:19;;;;;;;6.75;2.17;;;;;;;-142.75;100.00;74877.75;5069747;28;20024;-63
2023/08/01 01:02:45;;;;;;;7.80;2.40;;;;;;;-142.75;100.00;74889.56;5071231;28;20024;-63
2023/08/01 01:05:13;;;;;;;9.13;2.75;;;;;;;-142.75;100.00;74885.63;5071603;28;20112;-63
2023/08/01 01:07:39;;;;;;;5.15;1.67;;;;;;;-142.75;100.00;74885.63;5073246;28;20021;-63
2023/08/01 01:10:04;;;;;;;9.23;2.70;;;;;;;-142.75;100.00;74881.69;5076174;28;20671;-63
2023/08/01 01:12:30;;;;;;;12.73;2.90;;;;;;;-142.75;100.00;74889.56;5071053;28;20036;-63
2023/08/01 01:14:55;;;;;;;8.75;2.35;;;;;;;-142.75;100.00;74885.63;5078886;28;20034;-63
2023/08/01 01:17:20;;;;;;;9.57;2.53;;;;;;;-142.75;100.00;74897.44;5077603;28;20036;-63
2023/08/01 01:19:46;;;;;;;11.02;2.75;;;;;;;-142.75;100.00;74883.66;5077526;28;20024;-63
2023/08/01 01:22:12;;;;;;;6.10;2.28;;;;;;;-142.75;100.00;74858.09;5074766;28;20461;-64
2023/08/01 01:24:41;;;;;;;5.28;2.17;;;;;;;-142.75;100.00;74865.97;5069680;28;20484;-63
2023/08/01 01:27:08;;;;;;;8.93;2.10;;;;;;;-142.75;100.00;74862.03;5075668;28;20051;-63
2023/08/01 01:29:34;;;;;;;8.60;2.47;;;;;;;-142.75;100.00;74883.66;5075896;28;20028;-63
2023/08/01 01:32:00;;;;;;;9.30;2.50;;;;;;;-142.75;100.00;74865.97;5076507;28;20035;-63
2023/08/01 01:34:27;;;;;;;10.27;2.58;;;;;;;-142.75;100.00;74865.97;5077638;28;20032;-64
2023/08/01 01:36:53;;;;;;;11.27;2.42;;;;;;;-142.75;100.00;74883.66;5081859;28;20033;-64
2023/08/01 01:39:18;;;;;;;5.15;2.30;;;;;;;-142.75;100.00;74858.09;5073948;28;20032;-64
2023/08/01 01:41:43;;;;;;;10.73;2.55;;;;;;;-142.75;100.00;74865.97;5073507;28;20024;-64
2023/08/01 01:44:09;;;;;;;7.22;2.17;;;;;;;-142.75;100.00;74879.72;5071491;28;20028;-63
2023/08/01 01:46:34;;;;;;;11.02;2.55;;;;;;;-142.75;100.00;74889.56;5070609;28;20020;-64
2023/08/01 01:49:00;;;;;;;6.57;2.20;;;;;;;-142.75;100.00;74901.38;5076176;28;20027;-64
2023/08/01 01:51:26;;;;;;;11.70;2.63;;;;;;;-142.75;100.00;74877.75;5077557;28;20127;-64
2023/08/01 01:53:52;;;;;;;7.60;2.22;;;;;;;-142.75;100.00;74869.88;5081316;28;20024;-63
2023/08/01 01:56:17;;;;;;;6.93;2.28;;;;;;;-142.75;100.00;74871.84;5090647;28;20538;-64
2023/08/01 01:58:42;;;;;;;6.55;2.83;;;;;;;-142.75;100.00;74869.88;5089886;28;20035;-64
2023/08/01 02:01:08;;;;;;;12.95;3.17;;;;;;;-142.75;100.00;74869.88;5070084;28;20040;-64
2023/08/01 02:03:33;;;;;;;7.53;2.35;;;;;;;-142.75;100.00;74871.84;5070475;28;20107;-64
2023/08/01 02:05:59;;;;;;;8.30;2.40;;;;;;;-142.75;100.00;74877.75;5086282;28;20249;-63
2023/08/01 02:08:24;;;;;;;8.02;2.03;;;;;;;-142.75;100.00;74889.56;5089353;28;20044;-63
2023/08/01 02:10:49;;;;;;;9.57;2.17;;;;;;;-142.75;100.00;74873.81;5075705;28;20020;-64
2023/08/01 02:13:15;;;;;;;10.25;3.17;;;;;;;-142.75;100.00;74862.03;5073006;28;20024;-64
2023/08/01 02:15:40;;;;;;;11.85;2.88;;;;;;;-142.75;100.00;74850.22;5081456;28;20051;-63
2023/08/01 02:18:05;;;;;;;7.35;2.40;;;;;;;-142.75;100.00;74854.16;5085584;28;20032;-63
2023/08/01 02:20:31;;;;;;;10.07;3.30;;;;;;;-142.75;100.00;74852.19;5070537;28;20040;-63
2023/08/01 02:22:57;;;;;;;6.85;2.38;;;;;;;-142.75;100.00;74840.38;5079552;28;20030;-63
2023/08/01 02:25:22;;;;;;;10.38;3.10;;;;;;;-142.75;100.00;74844.31;5079120;28;20046;-63
2023/08/01 02:27:47;;;;;;;9.25;2.28;;;;;;;-142.75;100.00;74844.31;5090382;28;20048;-64
2023/08/01 02:30:13;;;;;;;8.40;2.72;;;;;;;-142.75;100.00;74832.50;5069098;28;20024;-63
2023/08/01 02:32:38;;;;;;;11.68;3.28;;;;;;;-142.75;100.00;74838.41;5069640;28;20471;-63
2023/08/01 02:35:04;;;;;;;12.10;2.65;;;;;;;-142.75;100.00;74838.41;5069617;28;20051;-63
2023/08/01 02:37:29;;;;;;;6.47;2.65;;;;;;;-142.75;100.00;74846.28;5078970;28;20036;-63
2023/08/01 02:39:55;;;;;;;10.52;2.92;;;;;;;-142.75;100.00;74852.19;5078612;28;20026;-63
2023/08/01 02:42:20;;;;;;;9.15;3.30;;;;;;;-142.75;100.00;74846.28;5089695;28;20510;-63
2023/08/01 02:44:45;;;;;;;13.13;3.30;;;;;;;-142.75;100.00;74838.41;5080464;28;20016;-63
2023/08/01 02:47:11;;;;;;;6.13;2.95;;;;;;;-142.75;100.00;74858.09;5081393;28;20024;-63
2023/08/01 02:49:36;;;;;;;13.20;3.08;;;;;;;-142.75;100.00;74856.13;5088951;28;20060;-63
2023/08/01 02:52:02;;;;;;;8.88;2.90;;;;;;;-142.75;100.00;74846.28;5070501;28;20020;-63
2023/08/01 02:54:27;;;;;;;10.68;2.75;;;;;;;-142.75;100.00;74842.34;5073321;28;20024;-63
2023/08/01 02:56:52;;;;;;;11.13;2.85;;;;;;;-142.75;100.00;74842.34;5069441;28;20017;-63
2023/08/01 02:59:18;;;;;;;5.72;3.10;;;;;;;-142.75;100.00;74828.56;5069546;28;20084;-63
2023/08/01 03:01:44;;;;;;;13.43;3.20;;;;;;;-142.75;100.00;74846.28;5080581;28;20101;-63
2023/08/01 03:04:11;;;;;;;8.35;3.03;;;;;;;-142.75;100.00;74856.13;5089872;28;20057;-63
2023/08/01 03:06:37;;;;;;;14.48;3.47;;;;;;;-142.75;100.00;74850.22;5089536;28;20050;-63
2023/08/01 03:09:03;;;;;;;9.93;3.20;;;;;;;-142.75;100.00;74846.28;5082052;28;20027;-63
2023/08/01 03:11:28;;;;;;;7.43;2.67;;;;;;;-142.75;100.00;74842.34;5088837;28;20419;-63
2023/08/01 03:13:54;;;;;;;8.35;2.60;;;;;;;-142.75;100.00;74858.09;5088998;28;20023;-64
2023/08/01 03:16:20;;;;;;;10.10;3.08;;;;;;;-142.75;100.00;74850.22;5089105;28;20024;-63
2023/08/01 03:18:45;;;;;;;8.82;3.17;;;;;;;-142.75;100.00;74834.47;5088859;28;20024;-63
2023/08/01 03:21:11;;;;;;;9.20;3.00;;;;;;;-142.75;100.00;74850.22;5088690;28;20407;-63
2023/08/01 03:23:36;;;;;;;11.80;3.90;;;;;;;-142.75;100.00;74854.16;5087378;28;20499;-63
2023/08/01 03:26:02;;;;;;;11.70;3.47;;;;;;;-142.75;100.00;74848.25;5079691;28;20052;-63
2023/08/01 03:28:27;;;;;;;9.32;2.75;;;;;;;-142.75;100.00;74846.28;5068534;28;20033;-63
2023/08/01 03:30:53;;;;;;;12.27;3.55;;;;;;;-142.75;100.00;74850.22;5068415;28;20020;-63
2023/08/01 03:33:20;;;;;;;7.13;3.20;;;;;;;-142.75;100.00;74850.22;5068032;28;20024;-63
2023/08/01 03:35:45;;;;;;;13.27;3.53;;;;;;;-142.75;100.00;74862.03;5068287;28;20023;-63
2023/08/01 03:38:11;;;;;;;11.75;3.08;;;;;;;-142.75;100.00;74848.25;5068623;28;20028;-63
2023/08/01 03:40:36;;;;;;;14.15;3.95;;;;;;;-142.75;100.00;74862.03;5069688;28;20035;-63
2023/08/01 03:43:01;;;;;;;8.05;3.00;;;;;;;-142.75;100.00;74862.03;5068132;28;20036;-63
2023/08/01 03:45:27;;;;;;;12.60;4.25;;;;;;;-142.75;100.00;74865.97;5077142;28;20105;-63
2023/08/01 03:47:52;;;;;;;14.68;3.75;;;;;;;-142.75;100.00;74854.16;5068592;28;20048;-63
2023/08/01 03:50:18;;;;;;;14.77;3.97;;;;;;;-142.75;100.00;74864.00;5068450;28;20026;-64
2023/08/01 03:52:43;;;;;;;15.23;3.95;;;;;;;-142.75;100.00;74889.56;5068173;28;20024;-64
2023/08/01 03:55:09;;;;;;;10.82;4.00;;;;;;;-142.75;100.00;74873.81;5068295;28;20391;-63
2023/08/01 03:57:34;;;;;;;10.45;3.60;;;;;;;-142.75;100.00;74865.97;5077386;28;20036;-64
2023/08/01 04:00:00;;;;;;;13.32;3.30;;;;;;;-142.75;100.00;74865.97;5073011;28;20035;-63
2023/08/01 04:02:25;;;;;;;12.85;3.65;;;;;;;-142.75;100.00;74885.63;5067953;28;20038;-63
2023/08/01 04:04:51;;;;;;;17.35;3.38;;;;;;;-142.75;100.00;74883.66;5068249;28;20116;-63
2023/08/01 04:07:16;;;;;;;15.77;3.83;;;;;;;-142.75;100.00;74901.38;5069621;28;20507;-63
2023/08/01 04:09:41;;;;;;;9.25;3.00;;;;;;;-142.75;100.00;74873.81;5068305;28;20492;-63
2023/08/01 04:12:07;;;;;;;6.22;2.58;;;;;;;-142.75;100.00;74881.69;5068028;28;20426;-63
2023/08/01 04:14:34;;;;;;;8.65;3.30;;;;;;;-142.75;100.00;74881.69;5066855;28;20115;-63
2023/08/01 04:16:59;;;;;;;9.27;3.13;;;;;;;-142.75;100.00;74881.69;5068036;28;20077;-63
2023/08/01 04:19:25;;;;;;;13.13;2.72;;;;;;;-142.75;100.00;74877.75;5068037;28;20033;-63
2023/08/01 04:21:50;;;;;;;10.05;3.20;;;;;;;-142.75;100.00;74873.81;5067672;28;20059;-64
2023/08/01 04:24:16;;;;;;;7.78;2.28;;;;;;;-142.75;100.00;74865.97;5074500;28;20099;-63
2023/08/01 04:26:41;;;;;;;10.20;3.25;;;;;;;-142.75;100.00;74854.16;5088362;28;20671;-63
2023/08/01 04:29:06;;;;;;;7.95;3.33;;;;;;;-142.75;100.00;74848.25;5088131;28;20028;-63
2023/08/01 04:31:32;;;;;;;7.53;3.25;;;;;;;-142.75;100.00;74854.16;5087705;28;21333;-64
2023/08/01 04:33:57;;;;;;;12.95;3.17;;;;;;;-142.75;100.00;74869.88;5087969;28;20024;-63
2023/08/01 04:36:22;;;;;;;14.38;2.85;;;;;;;-142.75;100.00;74852.19;5073925;28;20024;-64
2023/08/01 04:38:48;;;;;;;10.90;2.90;;;;;;;-142.75;100.00;74850.22;5071740;28;20029;-63
2023/08/01 04:41:13;;;;;;;10.77;3.03;;;;;;;-142.75;100.00;74862.03;5082243;28;20019;-63
2023/08/01 04:43:39;;;;;;;11.82;3.05;;;;;;;-142.75;100.00;74856.13;5092194;28;20027;-63
2023/08/01 04:46:04;;;;;;;11.70;2.97;;;;;;;-142.75;100.00;74869.88;5083056;28;20058;-63
2023/08/01 04:48:29;;;;;;;11.80;2.85;;;;;;;-142.75;100.00;74875.78;5077815;28;20059;-64
2023/08/01 04:50:55;;;;;;;7.97;2.47;;;;;;;-142.75;100.00;74873.81;5071357;28;20017;-63
2023/08/01 04:53:20;;;;;;;12.07;2.88;;;;;;;-142.75;100.00;74867.91;5071528;28;20115;-63
2023/08/01 04:55:45;;;;;;;9.77;2.85;;;;;;;-142.75;100.00;74865.97;5071364;28;20025;-63
2023/08/01 04:58:11;;;;;;;6.63;2.50;;;;;;;-142.75;100.00;74873.81;5071744;28;20023;-63
2023/08/01 05:00:37;;;;;;;15.48;2.83;;;;;;;-142.75;100.00;74864.00;5070885;28;20027;-63
2023/08/01 05:03:02;;;;;;;10.00;2.58;;;;;;;-142.75;100.00;74871.84;5083219;28;20020;-63
2023/08/01 05:05:28;;;;;;;9.98;2.63;;;;;;;-142.75;100.00;74881.69;5091657;28;20376;-63
2023/08/01 05:07:53;;;;;;;6.22;2.70;;;;;;;-142.75;100.00;74865.97;5091507;28;20597;-64
2023/08/01 05:10:18;;;;;;;6.68;2.25;;;;;;;-142.75;100.00;74869.88;5091595;28;20072;-63
2023/08/01 05:12:44;;;;;;;8.32;2.55;;;;;;;-142.75;100.00;74862.03;5079456;28;20049;-64
2023/08/01 05:15:09;;;;;;;10.70;2.47;;;;;;;-142.75;100.00;74865.97;5071346;28;20035;-64
2023/08/01 05:17:35;;;;;;;9.30;2.55;;;;;;;-142.75;100.00;74850.22;5071072;28;20028;-63
2023/08/01 05:20:00;;;;;;;7.80;2.65;;;;;;;-142.75;100.00;74867.91;5076191;28;20099;-63
2023/08/01 05:22:26;;;;;;;8.95;2.92;;;;;;;-142.75;100.00;74865.97;5091056;28;20028;-63
2023/08/01 05:24:51;;;;;;;8.57;2.92;;;;;;;-142.75;100.00;74858.09;5091503;28;20372;-63
2023/08/01 05:27:17;;;;;;;6.95;2.70;;;;;;;-142.75;100.00;74862.03;5091266;28;20024;-64
2023/08/01 05:29:42;;;;;;;8.68;2.55;;;;;;;-142.75;100.00;74881.69;5086889;28;20189;-64
2023/08/01 05:32:08;;;;;;;9.80;2.35;;;;;;;-142.75;100.00;74897.44;5077372;28;20098;-63
2023/08/01 05:34:33;;;;;;;8.00;2.05;;;;;;;-142.75;100.00;74921.06;5071175;28;20063;-64
2023/08/01 05:36:58;;;;;;;11.02;2.22;;;;;;;-142.75;100.00;74917.13;5070370;28;20025;-64
2023/08/01 05:39:24;;;;;;;9.50;2.50;;;;;;;-142.75;100.00;74913.19;5070311;28;20024;-64
2023/08/01 05:41:50;;;;;;;8.65;2.40;;;;;;;-142.75;100.00;74948.59;5069667;28;20042;-64
2023/08/01 05:44:16;;;;;;;8.65;2.17;;;;;;;-142.75;100.00;74924.97;5077388;28;20039;-64
2023/08/01 05:46:42;;;;;;;11.15;2.30;;;;;;;-142.75;100.00;74926.94;5089832;28;20071;-64
2023/08/01 05:49:07;;;;;;;8.50;2.53;;;;;;;-142.75;100.00;74909.25;5090673;28;20107;-64
2023/08/01 05:51:33;;;;;;;10.57;2.63;;;;;;;-142.75;100.00;74909.25;5090327;28;20600;-64
2023/08/01 05:53:58;;;;;;;8.23;2.00;;;;;;;-142.75;100.00;74913.19;5078248;28;20559;-64
2023/08/01 05:56:23;;;;;;;7.25;2.47;;;;;;;-142.75;100.00;74913.19;5085452;28;20061;-64
2023/08/01 05:58:50;;;;;;;8.23;2.50;;;;;;;-142.75;100.00;74897.44;5089885;28;20111;-64
2023/08/01 06:01:16;;;;;;;10.07;2.10;;;;;;;-142.75;100.00;74889.56;5071113;28;20031;-64
2023/08/01 06:03:42;;;;;;;10.95;2.63;;;;;;;-142.75;100.00;74875.78;5087528;28;20024;-64
2023/08/01 06:06:08;;;;;;;8.18;2.35;;;;;;;-142.75;100.00;74871.84;5089787;28;20028;-64
2023/08/01 06:08:33;;;;;;;9.40;2.50;;;;;;;-142.75;100.00;74836.44;5072341;28;20484;-64
2023/08/01 06:10:58;;;;;;;7.78;1.95;;;;;;;-142.75;100.00;74814.78;5085512;28;20117;-64
2023/08/01 06:13:24;;;;;;;10.65;2.50;;;;;;;-142.75;100.00;74860.06;5089468;28;20032;-64
2023/08/01 06:15:49;;;;;;;8.43;2.53;;;;;;;-142.75;100.00;74862.03;5089719;28;20028;-64
2023/08/01 06:18:14;;;;;;;8.90;2.17;;;;;;;-142.75;100.00;74846.28;5089607;28;20016;-63
2023/08/01 06:20:40;;;;;;;12.02;2.25;;;;;;;-142.75;100.00;74848.25;5082536;28;20038;-64
2023/08/01 06:23:05;;;;;;;15.43;3.08;;;;;;;-142.75;100.00;74838.41;5087886;28;20024;-64
2023/08/01 06:25:31;;;;;;;6.40;2.47;;;;;;;-142.75;100.00;74830.53;5074924;28;20031;-65
2023/08/01 06:27:56;;;;;;;12.38;2.92;;;;;;;-142.75;100.00;74810.88;5076329;28;20024;-64
2023/08/01 06:30:21;;;;;;;11.18;3.10;;;;;;;-142.75;100.00;74818.72;5089407;28;20030;-64
2023/08/01 06:32:47;;;;;;;8.02;2.20;;;;;;;-142.75;100.00;74820.69;5089088;28;20024;-64
2023/08/01 06:35:12;;;;;;;11.18;2.38;;;;;;;-142.75;100.00;74814.78;5089467;28;20077;-64
2023/08/01 06:37:37;;;;;;;6.95;2.35;;;;;;;-142.75;100.00;74854.16;5089345;28;20024;-64
2023/08/01 06:40:04;;;;;;;5.13;1.83;;;;;;;-142.75;100.00;74842.34;5089393;28;20027;-64
2023/08/01 06:42:29;;;;;;;10.57;2.83;;;;;;;-142.75;100.00;74865.97;5087370;28;20034;-64
2023/08/01 06:44:54;;;;;;;8.68;2.75;;;;;;;-142.75;100.00;74873.81;5089125;28;20099;-64
2023/08/01 06:47:20;;;;;;;7.80;2.13;;;;;;;-142.75;100.00;74865.97;5088755;28;20068;-64
2023/08/01 06:49:45;;;;;;;7.30;2.00;;;;;;;-142.75;100.00;74889.56;5088746;28;20024;-64
2023/08/01 06:52:10;;;;;;;9.95;2.63;;;;;;;-142.75;100.00;74899.41;5088520;28;20130;-64
2023/08/01 06:54:36;;;;;;;8.82;2.53;;;;;;;-142.75;100.00;74923.03;5089427;28;20376;-64
2023/08/01 06:57:01;;;;;;;6.78;2.50;;;;;;;-142.75;100.00;74926.94;5088540;28;20047;-64
2023/08/01 06:59:27;;;;;;;12.52;2.70;;;;;;;-142.75;100.00;74926.94;5088721;28;20066;-64
2023/08/01 07:01:52;;;;;;;9.15;2.28;;;;;;;-142.75;100.00;74930.88;5072906;28;21481;-64
2023/08/01 07:04:17;;;;;;;7.80;2.30;;;;;;;-142.75;100.00;74948.59;5082806;28;20020;-64
2023/08/01 07:06:43;;;;;;;7.30;2.03;;;;;;;-142.75;100.00;74966.31;5074018;28;20472;-64
2023/08/01 07:09:10;;;;;;;6.03;1.70;;;;;;;-142.75;100.00;74964.34;5068655;28;20024;-64
2023/08/01 07:11:35;;;;;;;6.85;1.98;;;;;;;-142.75;100.00;74976.16;5086366;28;20031;-64
2023/08/01 07:14:00;;;;;;;8.07;2.28;;;;;;;-142.75;100.00;74960.41;5071502;28;20077;-64
2023/08/01 07:16:26;;;;;;;5.35;2.17;;;;;;;-142.75;100.00;74909.25;5074813;28;20085;-66
2023/08/01 07:18:51;;;;;;;11.63;2.67;;;;;;;-142.75;100.00;74883.66;5071182;28;20024;-65
2023/08/01 07:21:17;;;;;;;8.05;2.25;;;;;;;-142.75;100.00;74846.28;5067185;28;20415;-64
2023/08/01 07:23:43;;;;;;;10.98;2.92;;;;;;;-142.75;100.00;74816.75;5068850;28;20032;-65
2023/08/01 07:26:08;;;;;;;6.47;2.15;;;;;;;-142.75;100.00;74806.94;5069248;28;20122;-65
2023/08/01 07:28:34;;;;;;;6.50;2.53;;;;;;;-142.75;100.00;74785.28;5074507;28;20263;-65
2023/08/01 07:31:00;;;;;;;11.15;2.03;;;;;;;-142.75;100.00;74818.72;5077820;28;20106;-65
2023/08/01 07:33:25;;;;;;;11.15;1.65;;;;;;;-142.75;100.00;74822.66;5077503;28;20491;-65
2023/08/01 07:35:51;;;;;;;7.88;1.85;;;;;;;-142.75;100.00;74834.47;5072040;28;20039;-65
2023/08/01 07:38:17;;;;;;;9.63;2.58;;;;;;;-142.75;100.00;74856.13;5069382;28;20020;-65
2023/08/01 07:40:42;;;;;;;5.05;1.50;;;;;;;-142.75;100.00;74885.63;5070405;28;20040;-65
2023/08/01 07:43:07;;;;;;;13.15;2.70;;;;;;;-142.75;100.00;74895.47;5073989;28;20051;-65
2023/08/01 07:45:34;;;;;;;14.48;3.65;;;;;;;-142.75;100.00;74858.09;5074245;28;20021;-65
2023/08/01 07:48:00;;;;;;;5.00;2.10;;;;;;;-142.75;100.00;74850.22;5075075;28;20979;-65
2023/08/01 07:50:26;;;;;;;6.00;1.75;;;;;;;-142.75;100.00;74850.22;5081034;28;20106;-65
2023/08/01 07:52:51;;;;;;;7.05;2.58;;;;;;;-142.75;100.00;74842.34;5077199;28;20017;-65
2023/08/01 07:55:18;;;;;;;7.80;1.80;;;;;;;-142.75;100.00;74844.31;5080195;28;20039;-65
2023/08/01 07:57:43;;;;;;;7.85;1.83;;;;;;;-142.75;100.00;74852.19;5076800;28;20106;-65
2023/08/01 08:00:10;;;;;;;5.22;2.00;;;;;;;-142.75;100.00;74869.88;5062206;28;20051;-65
2023/08/01 08:02:35;;;;;;;5.63;1.80;;;;;;;-142.75;100.00;74854.16;5073089;28;20115;-65
2023/08/01 08:05:01;;;;;;;8.73;1.90;;;;;;;-142.75;100.00;74848.25;5071354;28;20141;-65
2023/08/01 08:07:26;;;;;;;6.80;2.10;;;;;;;-142.75;100.00;74846.28;5069845;28;20107;-65
2023/08/01 08:09:51;;;;;;;4.20;1.50;;;;;;;-142.75;100.00;74844.31;5078547;28;20025;-65
2023/08/01 08:12:17;;;;;;;6.88;1.83;;;;;;;-142.75;100.00;74830.53;5081855;28;20024;-65
2023/08/01 08:14:42;;;;;;;8.25;1.50;;;;;;;-142.75;100.00;74789.22;5084513;28;20056;-65
2023/08/01 08:17:07;;;;;;;5.68;1.90;;;;;;;-142.75;100.00;74747.91;5079091;28;20076;-65
2023/08/01 08:19:33;;;;;;;6.70;1.80;;;;;;;-142.75;100.00;74732.16;5082071;28;20059;-65
2023/08/01 08:21:58;;;;;;;6.53;1.80;;;;;;;-142.75;100.00;74765.59;5083831;28;20012;-64
2023/08/01 08:24:23;;;;;;;3.80;1.40;;;;;;;-142.75;100.00;74810.88;5082891;28;20043;-65
2023/08/01 08:26:49;;;;;;;5.95;2.17;;;;;;;-142.75;100.00;74816.75;5070699;28;20017;-65
2023/08/01 08:29:14;;;;;;;3.75;1.35;;;;;;;-142.75;100.00;74824.63;5074204;28;20023;-66
2023/08/01 08:31:39;;;;;;;6.35;1.48;;;;;;;-142.75;100.00;74848.25;5082777;28;20029;-65
2023/08/01 08:34:05;;;;;;;8.10;1.60;;;;;;;-142.75;100.00;74860.06;5073385;28;20051;-65
2023/08/01 08:36:30;;;;;;;4.72;1.38;;;;;;;-142.75;100.00;74883.66;5075288;28;20081;-64
2023/08/01 08:38:55;;;;;;;6.80;2.00;;;;;;;-142.75;100.00;74905.31;5068666;28;20103;-66
2023/08/01 08:41:24;;;;;;;4.35;1.55;;;;;;;-142.75;100.00;74930.88;5084946;28;20036;-66
2023/08/01 08:43:55;;;;;;;6.32;1.73;;;;;;;-142.75;100.00;74930.88;5074641;28;20020;-65
2023/08/01 08:46:25;;;;;;;7.95;2.17;;;;;;;-142.75;100.00;74936.78;5067751;28;20032;-64
2023/08/01 08:48:50;;;;;;;9.98;2.28;;;;;;;-142.75;100.00;74948.59;5067858;28;20032;-66
2023/08/01 08:51:16;;;;;;;7.05;1.80;;;;;;;-142.75;100.00;74924.97;5067318;28;20029;-66
2023/08/01 08:53:44;;;;;;;8.95;2.20;;;;;;;-142.75;100.00;74881.69;5074289;28;20077;-66
2023/08/01 08:56:11;;;;;;;5.45;1.75;;;;;;;-142.75;100.00;74844.31;5088154;28;20055;-65
2023/08/01 08:58:39;;;;;;;8.35;1.95;;;;;;;-142.75;100.00;74775.44;5088107;28;20031;-66
2023/08/01 09:01:07;;;;;;;6.82;1.70;;;;;;;-142.75;100.00;74751.84;5086319;28;20028;-65
2023/08/01 09:03:33;;;;;;;9.80;1.90;;;;;;;-142.75;100.00;74779.38;5080191;28;20013;-65
2023/08/01 09:06:14;;;;;;;7.03;1.67;;;;;;;-142.75;100.00;74775.44;5073635;28;20092;-66
2023/08/01 09:08:41;;;;;;;6.95;1.83;;;;;;;-142.75;100.00;74787.25;5071948;28;20042;-65
2023/08/01 09:11:06;;;;;;;6.05;1.58;;;;;;;-142.75;100.00;74803.00;5073232;28;20434;-65
2023/08/01 09:13:32;;;;;;;12.75;2.15;;;;;;;-142.75;100.00;74834.47;5074650;28;20035;-65
2023/08/01 09:15:57;;;;;;;6.22;2.13;;;;;;;-142.75;100.00;74881.69;5071348;28;20082;-65
2023/08/01 09:18:23;;;;;;;6.57;2.00;;;;;;;-142.75;100.00;74897.44;5067615;28;20082;-65
2023/08/01 09:20:49;;;;;;;5.75;1.75;;;;;;;-142.75;100.00;74897.44;5080053;28;20024;-65
2023/08/01 09:23:16;;;;;;;5.47;2.20;;;;;;;-142.75;100.00;74858.09;5072313;28;20028;-65
2023/08/01 09:25:43;;;;;;;12.15;2.08;;;;;;;-142.75;100.00;74795.13;5069222;28;20024;-66
2023/08/01 09:28:22;;;;;;;9.98;2.08;;;;;;;-142.75;100.00;74745.94;5070291;28;20108;-65
2023/08/01 09:30:55;;;;;;;8.43;1.83;;;;;;;-142.75;100.00;74736.09;5076477;28;20425;-65
2023/08/01 09:33:21;;;;;;;10.27;2.10;;;;;;;-142.75;100.00;74720.34;5091158;28;20103;-65
2023/08/01 09:35:50;;;;;;;7.95;2.08;;;;;;;-142.75;100.00;74736.09;5082198;28;20031;-65
2023/08/01 09:38:16;;;;;;;7.90;1.92;;;;;;;-142.75;100.00;74751.84;5076750;28;20708;-65
2023/08/01 09:40:43;;;;;;;6.55;1.80;;;;;;;-142.75;100.00;74773.47;5077346;28;20035;-65
2023/08/01 09:43:10;;;;;;;5.82;1.80;;;;;;;-142.75;100.00;74771.50;5070821;28;20103;-65
2023/08/01 09:45:35;;;;;;;7.40;1.58;;;;;;;-142.75;100.00;74736.09;5071030;28;20028;-66
2023/08/01 09:48:01;;;;;;;6.85;1.70;;;;;;;-142.75;100.00;74783.31;5077981;28;20025;-66
2023/08/01 09:50:26;;;;;;;5.93;1.98;;;;;;;-142.75;100.00;74763.63;5070481;28;20488;-66
2023/08/01 09:52:52;;;;;;;9.30;1.70;;;;;;;-142.75;100.00;74795.13;5083367;28;20115;-66
2023/08/01 09:55:37;;;;;;;9.40;2.03;;;;;;;-142.75;100.00;74814.78;5073617;28;20028;-65
2023/08/01 09:58:04;;;;;;;12.68;1.88;;;;;;;-142.75;100.00;74787.25;5070211;28;20504;-66
2023/08/01 10:00:30;;;;;;;42.42;6.05;;;;;;;-142.75;100.00;74808.91;5074556;28;20086;-65
2023/08/01 10:03:02;;;;;;;7.40;1.80;;;;;;;-142.75;100.00;74814.78;5084786;28;20028;-65
2023/08/01 10:05:32;;;;;;;5.97;1.50;;;;;;;-142.75;100.00;74771.50;5074958;28;20028;-66
2023/08/01 10:08:02;;;;;;;6.07;1.63;;;;;;;-142.75;100.00;74742.00;5071610;28;20035;-66
2023/08/01 10:10:28;;;;;;;10.13;1.65;;;;;;;-142.75;100.00;74716.41;5071700;28;20069;-65
2023/08/01 10:12:56;;;;;;;6.57;1.45;;;;;;;-142.75;100.00;74684.94;5072996;28;20035;-65
2023/08/01 10:15:21;;;;;;;6.85;1.33;;;;;;;-142.75;100.00;74682.97;5070601;28;20025;-66
2023/08/01 10:17:46;;;;;;;5.28;1.50;;;;;;;-142.75;100.00;74667.22;5070263;28;20065;-66
2023/08/01 10:20:14;;;;;;;7.70;1.38;;;;;;;-142.75;100.00;74700.69;5071805;28;20051;-66
2023/08/01 10:22:40;;;;;;;7.65;1.15;;;;;;;-142.75;100.00;74755.78;5069816;28;20028;-66
2023/08/01 10:25:08;;;;;;;5.90;1.35;;;;;;;-142.75;100.00;74769.53;5082663;28;20046;-67
2023/08/01 10:27:35;;;;;;;7.32;1.55;;;;;;;-142.75;100.00;74787.25;5090007;28;20508;-66
2023/08/01 10:30:06;;;;;;;7.90;1.65;;;;;;;-142.75;100.00;74803.00;5073788;28;20395;-66
2023/08/01 10:32:37;;;;;;;6.50;1.48;;;;;;;-142.75;100.00;74854.16;5068752;28;20111;-66
2023/08/01 10:35:03;;;;;;;11.27;1.60;;;;;;;-142.75;100.00;74865.97;5067410;28;20029;-66
2023/08/01 10:37:47;;;;;;;6.40;1.50;;;;;;;-142.75;100.00;74889.56;5067953;28;20032;-66
2023/08/01 10:40:12;;;;;;;4.20;1.30;;;;;;;-142.75;100.00;74889.56;5076671;28;20503;-66
2023/08/01 10:42:42;;;;;;;10.43;1.50;;;;;;;-142.75;100.00;74887.59;5070878;28;20035;-66
2023/08/01 10:45:20;;;;;;;9.40;1.52;;;;;;;-142.75;100.00;74844.31;5077661;28;20061;-66
2023/08/01 10:47:45;;;;;;;3.53;1.55;;;;;;;-142.75;100.00;74885.63;5081274;28;20046;-66
2023/08/01 10:50:18;;;;;;;6.85;1.23;;;;;;;-142.75;100.00;74865.97;5081698;28;20011;-66
2023/08/01 10:52:43;;;;;;;9.13;1.63;;;;;;;-142.75;100.00;74873.81;5083781;28;20047;-65
2023/08/01 10:55:09;;;;;;;5.57;1.85;;;;;;;-142.75;100.00;74846.28;5088741;28;20398;-65
2023/08/01 10:57:38;;;;;;;5.55;1.73;;;;;;;-142.75;100.00;74812.81;5087985;28;20384;-66
2023/08/01 11:00:09;;;;;;;4.93;1.33;;;;;;;-142.75;100.00;74818.72;5077532;28;20106;-65
2023/08/01 11:02:35;;;;;;;8.73;1.60;;;;;;;-142.75;100.00;74814.78;5077253;28;20039;-66